Time;durP1;ratioP1;P1;durP2;ratioP2;P2;SDS_P1;SDS_P2;PMS_P1;PMS_P2;Temp;Humidity;BMP_temperature;BMP_pressure;BME280_temperature;BME280_humidity;BME280_pressure;Samples;Min_cycle;Max_cycle;Signal;HPM_P1;HPM_P2
2022/01/12 00:02:01;;;;;;;21.37;12.37;;;;;;;;;;5014486;28;20025;-63
2022/01/12 00:04:28;;;;;;;17.87;12.23;;;;;;;;;;5009273;28;20383;-63
2022/01/12 00:06:53;;;;;;;16.43;12.43;;;;;;;;;;4996812;28;20029;-63
2022/01/12 00:09:19;;;;;;;16.07;12.50;;;;;;;;;;4996612;28;20535;-63
2022/01/12 00:11:46;;;;;;;16.93;12.37;;;;;;;;;;5010098;28;20093;-63
2022/01/12 00:14:12;;;;;;;18.30;12.10;;;;;;;;;;5009924;28;20045;-63
2022/01/12 00:16:40;;;;;;;17.90;11.67;;;;;;;;;;4979225;28;20057;-62
2022/01/12 00:19:06;;;;;;;19.30;12.73;;;;;;;;;;4996405;28;20373;-63
2022/01/12 00:21:32;;;;;;;13.90;12.17;;;;;;;;;;5009430;28;20026;-63
2022/01/12 00:23:58;;;;;;;18.90;13.60;;;;;;;;;;5012912;28;20083;-63
2022/01/12 00:34:28;;;;;;;16.67;12.68;;;;;;;;;;5009204;28;20056;-63
2022/01/12 00:36:54;;;;;;;15.43;11.23;;;;;;;;;;4999126;28;20026;-63
2022/01/12 00:39:20;;;;;;;14.80;10.40;;;;;;;;;;5010358;28;20022;-63
2022/01/12 00:41:47;;;;;;;15.27;9.87;;;;;;;;;;5010887;28;20100;-63
2022/01/12 00:44:22;;;;;;;14.83;11.00;;;;;;;;;;5011154;28;20022;-63
2022/01/12 00:46:49;;;;;;;13.87;10.93;;;;;;;;;;4978774;28;20383;-63
2022/01/12 00:49:15;;;;;;;19.20;11.27;;;;;;;;;;4997136;28;20030;-63
2022/01/12 00:51:42;;;;;;;15.50;11.10;;;;;;;;;;5007571;28;20033;-63
2022/01/12 00:54:08;;;;;;;16.40;10.50;;;;;;;;;;4995989;28;20033;-63
2022/01/12 00:56:34;;;;;;;17.83;11.00;;;;;;;;;;5002980;28;20022;-63
2022/01/12 00:59:00;;;;;;;18.20;10.30;;;;;;;;;;4997046;28;20473;-63
2022/01/12 01:01:27;;;;;;;19.67;10.80;;;;;;;;;;5007177;28;20364;-63
2022/01/12 01:03:53;;;;;;;14.17;11.10;;;;;;;;;;5014343;28;20563;-63
2022/01/12 01:06:20;;;;;;;15.10;11.20;;;;;;;;;;5000652;28;20574;-63
2022/01/12 01:08:50;;;;;;;15.80;10.53;;;;;;;;;;5014184;28;20112;-63
2022/01/12 01:11:17;;;;;;;14.80;10.13;;;;;;;;;;4995523;28;20022;-63
2022/01/12 01:13:55;;;;;;;15.23;9.93;;;;;;;;;;4976904;28;20042;-63
2022/01/12 01:16:28;;;;;;;14.63;9.57;;;;;;;;;;4977985;28;20395;-63
2022/01/12 01:27:07;;;;;;;17.60;10.68;;;;;;;;;;4995357;28;20134;-62
2022/01/12 01:29:33;;;;;;;17.60;9.73;;;;;;;;;;4999379;28;20077;-62
2022/01/12 01:32:00;;;;;;;14.43;10.00;;;;;;;;;;5003825;28;20106;-62
2022/01/12 01:34:27;;;;;;;16.93;10.13;;;;;;;;;;4999023;28;20041;-62
2022/01/12 01:36:54;;;;;;;15.00;9.17;;;;;;;;;;5014525;28;20022;-62
2022/01/12 01:39:22;;;;;;;16.73;9.77;;;;;;;;;;5010953;28;20041;-61
2022/01/12 01:41:53;;;;;;;12.53;9.43;;;;;;;;;;5011885;28;20475;-62
2022/01/12 01:55:30;;;;;;;14.20;9.50;;;;;;;;;;5002720;28;20104;-62
2022/01/12 01:57:56;;;;;;;14.27;9.67;;;;;;;;;;4993951;28;20030;-62
2022/01/12 02:00:24;;;;;;;14.53;9.60;;;;;;;;;;5003280;28;20033;-62
2022/01/12 02:02:57;;;;;;;15.10;9.50;;;;;;;;;;5013897;28;20030;-62
2022/01/12 02:05:23;;;;;;;14.73;9.77;;;;;;;;;;5002391;28;20081;-62
2022/01/12 02:07:49;;;;;;;15.80;9.97;;;;;;;;;;4994412;28;20092;-62
2022/01/12 02:10:15;;;;;;;20.40;12.60;;;;;;;;;;5002166;28;20053;-62
2022/01/12 02:12:42;;;;;;;20.63;12.77;;;;;;;;;;5012897;28;20449;-62
2022/01/12 02:15:13;;;;;;;23.63;13.40;;;;;;;;;;5012931;28;20029;-62
2022/01/12 02:17:52;;;;;;;22.33;13.10;;;;;;;;;;4998926;28;20037;-62
2022/01/12 02:35:13;;;;;;;20.33;13.23;;;;;;;;;;4994671;28;20137;-62
2022/01/12 02:42:17;;;;;;;22.40;13.37;;;;;;;;;;4993340;28;20022;-61
2022/01/12 02:55:42;;;;;;;18.23;12.95;;;;;;;;;;5002958;28;20032;-62
2022/01/12 02:58:08;;;;;;;17.60;13.37;;;;;;;;;;5012630;28;20151;-62
2022/01/12 03:03:22;;;;;;;20.02;13.15;;;;;;;;;;5007230;28;20073;-62
2022/01/12 03:05:57;;;;;;;24.50;13.60;;;;;;;;;;5010794;28;20559;-62
2022/01/12 03:08:25;;;;;;;17.10;14.03;;;;;;;;;;5012923;28;20036;-62
2022/01/12 03:10:51;;;;;;;21.77;13.97;;;;;;;;;;5000817;28;20039;-62
2022/01/12 03:13:17;;;;;;;22.27;13.53;;;;;;;;;;4992638;28;20100;-62
2022/01/12 03:15:43;;;;;;;18.37;12.87;;;;;;;;;;4993627;28;20399;-62
2022/01/12 03:18:10;;;;;;;17.50;13.30;;;;;;;;;;4993073;28;20487;-62
2022/01/12 03:20:38;;;;;;;19.10;13.10;;;;;;;;;;4993278;28;20031;-62
2022/01/12 03:23:04;;;;;;;18.87;12.87;;;;;;;;;;5004139;28;20022;-62
2022/01/12 03:25:30;;;;;;;18.10;12.63;;;;;;;;;;5007300;28;20034;-62
2022/01/12 03:28:00;;;;;;;20.47;13.33;;;;;;;;;;5011170;28;20072;-62
2022/01/12 03:30:34;;;;;;;18.10;13.53;;;;;;;;;;5006929;28;20036;-62
2022/01/12 03:33:30;;;;;;;20.23;13.53;;;;;;;;;;5008726;28;20037;-62
2022/01/12 03:36:28;;;;;;;22.95;13.55;;;;;;;;;;5006860;28;20069;-62
2022/01/12 03:38:56;;;;;;;21.33;13.90;;;;;;;;;;4992874;28;20029;-62
2022/01/12 03:41:23;;;;;;;23.17;14.43;;;;;;;;;;4997198;28;20031;-61
2022/01/12 03:43:49;;;;;;;26.53;15.03;;;;;;;;;;5000197;28;20037;-63
2022/01/12 03:46:16;;;;;;;19.47;13.53;;;;;;;;;;5011768;28;20533;-62
2022/01/12 03:48:42;;;;;;;20.40;13.53;;;;;;;;;;5012382;28;20026;-62
2022/01/12 03:51:08;;;;;;;21.87;13.80;;;;;;;;;;5011506;28;20026;-62
2022/01/12 03:53:34;;;;;;;20.10;13.37;;;;;;;;;;4994491;28;20041;-63
2022/01/12 03:56:00;;;;;;;20.07;13.80;;;;;;;;;;5011411;28;20026;-63
2022/01/12 03:58:26;;;;;;;18.33;13.00;;;;;;;;;;5012456;28;20030;-63
2022/01/12 04:00:52;;;;;;;20.63;13.07;;;;;;;;;;5011907;28;20024;-62
2022/01/12 04:03:18;;;;;;;25.07;13.80;;;;;;;;;;5012258;28;20021;-62
2022/01/12 04:08:29;;;;;;;20.48;13.00;;;;;;;;;;5016013;28;20040;-63
2022/01/12 04:11:00;;;;;;;22.10;14.17;;;;;;;;;;5012144;28;20116;-63
2022/01/12 04:13:28;;;;;;;21.90;14.03;;;;;;;;;;5012431;28;20137;-63
2022/01/12 04:15:55;;;;;;;23.00;13.67;;;;;;;;;;5014726;28;20526;-63
2022/01/12 04:18:21;;;;;;;22.10;12.43;;;;;;;;;;5015849;28;20388;-63
2022/01/12 04:20:49;;;;;;;21.83;14.07;;;;;;;;;;5015376;28;20025;-62
2022/01/12 04:23:20;;;;;;;21.07;14.13;;;;;;;;;;5017807;28;20471;-63
2022/01/12 04:25:50;;;;;;;21.57;14.40;;;;;;;;;;5014721;28;20042;-63
2022/01/12 04:28:17;;;;;;;19.50;14.20;;;;;;;;;;5015751;28;20122;-63
2022/01/12 04:30:44;;;;;;;21.37;13.43;;;;;;;;;;5014798;28;20042;-62
2022/01/12 04:33:10;;;;;;;19.03;12.43;;;;;;;;;;5015031;28;20037;-63
2022/01/12 04:35:44;;;;;;;21.77;12.90;;;;;;;;;;5014735;28;20034;-63
2022/01/12 04:38:10;;;;;;;23.77;13.17;;;;;;;;;;5008421;28;20395;-63
2022/01/12 04:40:36;;;;;;;19.90;13.13;;;;;;;;;;5012029;28;20030;-62
2022/01/12 04:43:02;;;;;;;20.00;12.43;;;;;;;;;;5014556;28;20042;-63
2022/01/12 04:50:28;;;;;;;17.30;12.50;;;;;;;;;;5014086;28;20076;-63
2022/01/12 04:52:54;;;;;;;22.20;12.50;;;;;;;;;;5013918;28;20120;-63
2022/01/12 04:55:20;;;;;;;19.53;11.97;;;;;;;;;;5013062;28;20030;-63
2022/01/12 04:57:46;;;;;;;18.47;11.87;;;;;;;;;;5013816;28;20034;-62
2022/01/12 05:00:15;;;;;;;15.57;12.07;;;;;;;;;;5013937;28;20054;-63
2022/01/12 05:13:28;;;;;;;14.73;11.30;;;;;;;;;;5007382;28;20053;-62
2022/01/12 05:15:54;;;;;;;19.10;10.40;;;;;;;;;;5011589;28;20026;-63
2022/01/12 05:18:21;;;;;;;14.40;10.00;;;;;;;;;;5012264;28;20052;-63
2022/01/12 05:20:47;;;;;;;15.53;9.83;;;;;;;;;;5007129;28;20037;-63
2022/01/12 05:23:15;;;;;;;16.80;10.33;;;;;;;;;;5014530;28;20045;-62
2022/01/12 05:25:42;;;;;;;14.77;10.53;;;;;;;;;;5009363;28;20040;-62
2022/01/12 05:28:08;;;;;;;13.30;10.17;;;;;;;;;;5000403;28;20061;-62
2022/01/12 05:30:34;;;;;;;14.40;9.43;;;;;;;;;;5012815;28;20566;-62
2022/01/12 05:33:00;;;;;;;18.47;10.60;;;;;;;;;;5013336;28;20042;-62
2022/01/12 05:35:32;;;;;;;20.23;11.27;;;;;;;;;;5008483;28;20550;-62
2022/01/12 05:37:58;;;;;;;15.53;9.20;;;;;;;;;;5000791;28;20049;-62
2022/01/12 05:40:24;;;;;;;16.10;9.60;;;;;;;;;;5010616;28;20058;-62
2022/01/12 05:42:51;;;;;;;15.57;10.13;;;;;;;;;;5014151;28;20072;-62
2022/01/12 05:45:19;;;;;;;12.43;9.13;;;;;;;;;;5012872;28;20018;-62
2022/01/12 05:50:12;;;;;;;13.40;8.47;;;;;;;;;;5006366;28;20184;-62
2022/01/12 05:52:38;;;;;;;16.70;9.10;;;;;;;;;;5011214;28;20030;-62
2022/01/12 05:55:05;;;;;;;12.50;8.50;;;;;;;;;;5010425;28;20542;-62
2022/01/12 05:57:31;;;;;;;13.17;8.80;;;;;;;;;;4998354;28;20491;-62
2022/01/12 06:00:01;;;;;;;12.17;8.57;;;;;;;;;;5008127;28;20053;-62
2022/01/12 06:02:27;;;;;;;11.53;8.43;;;;;;;;;;5013497;28;20034;-62
2022/01/12 06:04:53;;;;;;;13.17;8.73;;;;;;;;;;5013175;28;20030;-62
2022/01/12 06:07:19;;;;;;;12.33;8.07;;;;;;;;;;5007261;28;20388;-62
2022/01/12 06:09:45;;;;;;;11.00;7.50;;;;;;;;;;5012745;28;20148;-62
2022/01/12 06:12:11;;;;;;;10.47;8.17;;;;;;;;;;5011938;28;20065;-62
2022/01/12 06:14:37;;;;;;;16.60;8.00;;;;;;;;;;5006825;28;20052;-62
2022/01/12 06:23:10;;;;;;;15.67;8.60;;;;;;;;;;5008336;28;20505;-62
2022/01/12 06:25:36;;;;;;;12.80;8.13;;;;;;;;;;5006806;28;20030;-62
2022/01/12 06:28:39;;;;;;;15.43;7.67;;;;;;;;;;5013764;28;20029;-62
2022/01/12 06:31:10;;;;;;;11.23;7.00;;;;;;;;;;5003710;28;20052;-62
2022/01/12 06:33:41;;;;;;;12.53;8.40;;;;;;;;;;5013208;28;20149;-62
2022/01/12 06:36:07;;;;;;;13.47;8.13;;;;;;;;;;5012757;28;20034;-62
2022/01/12 06:38:33;;;;;;;12.77;7.47;;;;;;;;;;5002435;28;20081;-62
2022/01/12 06:40:59;;;;;;;11.10;7.67;;;;;;;;;;5010130;28;20041;-62
2022/01/12 06:43:27;;;;;;;11.90;7.90;;;;;;;;;;4998014;28;20038;-62
2022/01/12 06:45:54;;;;;;;12.53;8.13;;;;;;;;;;5008097;28;20022;-62
2022/01/12 06:48:20;;;;;;;17.27;8.53;;;;;;;;;;5012591;28;20479;-62
2022/01/12 06:50:46;;;;;;;14.70;8.10;;;;;;;;;;5012338;28;20057;-62
2022/01/12 06:53:12;;;;;;;13.10;7.87;;;;;;;;;;4999800;28;20128;-62
2022/01/12 06:55:39;;;;;;;13.83;8.73;;;;;;;;;;5011434;28;20460;-62
2022/01/12 06:58:05;;;;;;;12.03;8.27;;;;;;;;;;5013691;28;20033;-62
2022/01/12 07:00:31;;;;;;;12.80;7.97;;;;;;;;;;5011566;28;20088;-62
2022/01/12 07:02:57;;;;;;;15.00;7.93;;;;;;;;;;5013649;28;20033;-62
2022/01/12 07:05:23;;;;;;;12.87;8.73;;;;;;;;;;5011135;28;20081;-62
2022/01/12 07:07:49;;;;;;;18.43;8.70;;;;;;;;;;5012145;28;20038;-62
2022/01/12 07:10:15;;;;;;;14.27;8.83;;;;;;;;;;5011732;28;20053;-62
2022/01/12 07:12:41;;;;;;;11.87;8.03;;;;;;;;;;5011096;28;20618;-62
2022/01/12 07:15:07;;;;;;;14.67;8.83;;;;;;;;;;5004200;28;20205;-62
2022/01/12 07:17:33;;;;;;;14.60;9.57;;;;;;;;;;5012376;28;20113;-62
2022/01/12 07:19:59;;;;;;;19.20;9.97;;;;;;;;;;5009691;28;20452;-63
2022/01/12 07:22:25;;;;;;;15.77;9.87;;;;;;;;;;5010380;28;20022;-62
2022/01/12 07:24:51;;;;;;;15.10;9.40;;;;;;;;;;5012258;28;20041;-62
2022/01/12 07:27:17;;;;;;;13.30;9.30;;;;;;;;;;5010934;28;20088;-62
2022/01/12 07:29:43;;;;;;;16.87;10.30;;;;;;;;;;5004472;28;20483;-62
2022/01/12 07:32:09;;;;;;;17.47;11.37;;;;;;;;;;5011467;28;20120;-62
2022/01/12 07:34:35;;;;;;;16.33;11.23;;;;;;;;;;5008889;28;20025;-62
2022/01/12 07:37:01;;;;;;;21.67;12.23;;;;;;;;;;5012063;28;20460;-62
2022/01/12 07:39:27;;;;;;;20.23;11.97;;;;;;;;;;5011960;28;20084;-62
2022/01/12 07:41:53;;;;;;;19.83;10.90;;;;;;;;;;4998370;28;20026;-63
2022/01/12 07:44:21;;;;;;;21.03;11.57;;;;;;;;;;5009751;28;20068;-62
2022/01/12 07:46:47;;;;;;;20.97;12.13;;;;;;;;;;5015090;28;20501;-62
2022/01/12 07:49:13;;;;;;;19.67;11.73;;;;;;;;;;4996693;28;20414;-62
2022/01/12 07:51:39;;;;;;;21.73;12.07;;;;;;;;;;5011495;28;20026;-63
2022/01/12 07:54:05;;;;;;;19.03;11.63;;;;;;;;;;5001340;28;20061;-62
2022/01/12 07:56:31;;;;;;;16.67;11.47;;;;;;;;;;5001926;28;20022;-63
2022/01/12 07:58:57;;;;;;;16.17;10.90;;;;;;;;;;5013053;28;20124;-63
2022/01/12 08:01:35;;;;;;;22.70;11.73;;;;;;;;;;4996476;28;20381;-63
2022/01/12 08:04:03;;;;;;;19.90;13.23;;;;;;;;;;4996984;28;20052;-63
2022/01/12 08:06:29;;;;;;;22.43;12.20;;;;;;;;;;4996696;28;20030;-63
2022/01/12 08:08:57;;;;;;;19.90;12.43;;;;;;;;;;5010461;28;20753;-62
2022/01/12 08:11:25;;;;;;;19.70;12.30;;;;;;;;;;5012462;28;20501;-62
2022/01/12 08:13:52;;;;;;;20.83;12.60;;;;;;;;;;5012563;28;20054;-64
2022/01/12 08:16:18;;;;;;;21.33;12.03;;;;;;;;;;4995463;28;20479;-63
2022/01/12 08:18:44;;;;;;;25.60;13.60;;;;;;;;;;5005622;28;20030;-62
2022/01/12 08:21:10;;;;;;;22.97;11.33;;;;;;;;;;5013343;28;20101;-63
2022/01/12 08:23:37;;;;;;;21.27;13.43;;;;;;;;;;5012085;28;20469;-62
2022/01/12 08:26:03;;;;;;;21.80;13.47;;;;;;;;;;5007153;28;20427;-62
2022/01/12 08:28:29;;;;;;;23.93;13.30;;;;;;;;;;5015596;28;20057;-62
2022/01/12 08:30:55;;;;;;;25.13;14.10;;;;;;;;;;5005282;28;20030;-62
2022/01/12 08:33:21;;;;;;;22.03;13.07;;;;;;;;;;4999861;28;20038;-63
2022/01/12 08:35:47;;;;;;;24.70;12.13;;;;;;;;;;5010129;28;20030;-62
2022/01/12 08:38:13;;;;;;;26.97;12.50;;;;;;;;;;5013589;28;20029;-62
2022/01/12 08:40:41;;;;;;;21.07;12.00;;;;;;;;;;5006950;28;20022;-62
2022/01/12 08:43:07;;;;;;;17.67;11.27;;;;;;;;;;5002729;28;20026;-62
2022/01/12 08:45:33;;;;;;;17.53;11.13;;;;;;;;;;5008872;28;20440;-63
2022/01/12 08:48:00;;;;;;;17.67;10.70;;;;;;;;;;5010939;28;20022;-63
2022/01/12 08:50:27;;;;;;;18.47;12.33;;;;;;;;;;4999161;28;20682;-63
2022/01/12 08:52:53;;;;;;;22.47;13.03;;;;;;;;;;4993665;28;20104;-63
2022/01/12 08:55:20;;;;;;;23.73;14.23;;;;;;;;;;5012308;28;20109;-63
2022/01/12 08:57:46;;;;;;;26.80;14.57;;;;;;;;;;5014431;28;20044;-63
2022/01/12 09:00:13;;;;;;;23.63;15.13;;;;;;;;;;5005601;28;20510;-63
2022/01/12 09:02:39;;;;;;;19.03;13.43;;;;;;;;;;4982600;28;20061;-63
2022/01/12 09:05:05;;;;;;;21.73;14.47;;;;;;;;;;5005051;28;20038;-63
2022/01/12 09:07:41;;;;;;;20.40;14.20;;;;;;;;;;5014369;28;20379;-63
2022/01/12 09:10:07;;;;;;;21.90;14.20;;;;;;;;;;5009548;28;20030;-63
2022/01/12 09:12:33;;;;;;;25.37;14.37;;;;;;;;;;5013179;28;20034;-62
2022/01/12 09:14:59;;;;;;;17.53;11.97;;;;;;;;;;5006971;28;20044;-63
2022/01/12 09:17:25;;;;;;;19.67;12.30;;;;;;;;;;5014252;28;20060;-62
2022/01/12 09:19:52;;;;;;;19.90;12.37;;;;;;;;;;5009790;28;20026;-62
2022/01/12 09:22:18;;;;;;;16.67;12.17;;;;;;;;;;4991587;28;20395;-62
2022/01/12 09:24:46;;;;;;;16.80;11.40;;;;;;;;;;5013670;28;20108;-62
2022/01/12 09:27:12;;;;;;;17.40;10.77;;;;;;;;;;5013009;28;20018;-62
2022/01/12 09:29:38;;;;;;;20.13;12.70;;;;;;;;;;5007597;28;20033;-62
2022/01/12 09:32:05;;;;;;;22.80;15.07;;;;;;;;;;5010545;28;20021;-62
2022/01/12 09:34:31;;;;;;;25.70;16.77;;;;;;;;;;5009358;28;20033;-63
2022/01/12 09:40:01;;;;;;;27.50;16.37;;;;;;;;;;5012092;28;20036;-63
2022/01/12 09:42:27;;;;;;;25.67;15.17;;;;;;;;;;5009289;28;20109;-62
2022/01/12 09:44:53;;;;;;;25.63;16.07;;;;;;;;;;5007986;28;20080;-62
2022/01/12 09:53:26;;;;;;;24.10;15.40;;;;;;;;;;5010736;28;20111;-62
2022/01/12 09:55:52;;;;;;;29.07;17.80;;;;;;;;;;5011331;28;20026;-62
2022/01/12 09:58:18;;;;;;;30.60;15.97;;;;;;;;;;5001488;28;20084;-62
2022/01/12 10:00:55;;;;;;;25.73;16.43;;;;;;;;;;5007392;28;20034;-62
2022/01/12 10:03:23;;;;;;;28.67;17.03;;;;;;;;;;4996218;28;20030;-63
2022/01/12 10:05:50;;;;;;;25.73;17.67;;;;;;;;;;5011237;28;20065;-62
2022/01/12 10:08:16;;;;;;;26.20;17.17;;;;;;;;;;4994492;28;20034;-61
2022/01/12 10:10:44;;;;;;;25.10;15.70;;;;;;;;;;5021342;28;20044;-62
2022/01/12 10:13:17;;;;;;;29.77;16.60;;;;;;;;;;4990804;28;20124;-62
2022/01/12 10:15:43;;;;;;;23.60;13.43;;;;;;;;;;5012347;28;20101;-62
2022/01/12 10:18:09;;;;;;;18.83;13.60;;;;;;;;;;5005506;28;20108;-62
2022/01/12 10:20:44;;;;;;;25.67;13.33;;;;;;;;;;5013665;28;20022;-62
2022/01/12 10:23:11;;;;;;;22.02;13.70;;;;;;;;;;5002997;28;20032;-62
2022/01/12 10:25:38;;;;;;;21.83;11.93;;;;;;;;;;5011380;28;20061;-62
2022/01/12 10:28:21;;;;;;;17.90;12.60;;;;;;;;;;5010300;28;20041;-62
2022/01/12 10:30:54;;;;;;;20.73;13.03;;;;;;;;;;5008555;28;20033;-63
2022/01/12 10:33:20;;;;;;;22.30;14.03;;;;;;;;;;4985009;28;20045;-62
2022/01/12 10:35:49;;;;;;;24.13;14.40;;;;;;;;;;5010069;28;20124;-62
2022/01/12 10:38:17;;;;;;;22.33;14.57;;;;;;;;;;5010104;28;20026;-62
2022/01/12 10:40:48;;;;;;;24.13;15.80;;;;;;;;;;5012772;28;20025;-62
2022/01/12 10:43:26;;;;;;;24.90;14.60;;;;;;;;;;5010507;28;20409;-62
2022/01/12 10:45:53;;;;;;;23.07;15.07;;;;;;;;;;5012415;28;20029;-62
2022/01/12 10:48:20;;;;;;;22.33;14.27;;;;;;;;;;5012429;28;20040;-63
2022/01/12 10:50:56;;;;;;;23.97;16.03;;;;;;;;;;5012075;28;20486;-61
2022/01/12 10:53:33;;;;;;;24.50;15.60;;;;;;;;;;4975576;28;20116;-63
2022/01/12 10:56:07;;;;;;;20.40;15.17;;;;;;;;;;5009872;28;20026;-62
2022/01/12 10:58:33;;;;;;;26.00;15.53;;;;;;;;;;5011677;28;20034;-64
2022/01/12 11:01:00;;;;;;;22.20;14.70;;;;;;;;;;5008948;28;20034;-63
2022/01/12 11:03:26;;;;;;;21.33;15.83;;;;;;;;;;4994699;28;20030;-64
2022/01/12 11:05:54;;;;;;;22.83;16.50;;;;;;;;;;5011281;28;20041;-63
2022/01/12 11:08:20;;;;;;;27.33;16.60;;;;;;;;;;5011982;28;20389;-63
2022/01/12 11:10:46;;;;;;;23.97;15.73;;;;;;;;;;5011891;28;20044;-62
2022/01/12 11:13:13;;;;;;;23.93;15.70;;;;;;;;;;5011407;28;20054;-63
2022/01/12 11:15:39;;;;;;;24.40;17.13;;;;;;;;;;5008405;28;20105;-63
2022/01/12 11:18:05;;;;;;;25.37;15.07;;;;;;;;;;4976605;28;20129;-63
2022/01/12 11:20:32;;;;;;;24.27;14.90;;;;;;;;;;5002896;28;20048;-63
2022/01/12 11:23:07;;;;;;;22.33;15.57;;;;;;;;;;5011876;28;20080;-63
2022/01/12 11:25:33;;;;;;;22.97;15.07;;;;;;;;;;4999001;28;20105;-63
2022/01/12 11:28:11;;;;;;;22.00;14.97;;;;;;;;;;5003229;28;20114;-63
2022/01/12 11:30:39;;;;;;;23.70;15.30;;;;;;;;;;5010622;28;20479;-63
2022/01/12 11:33:06;;;;;;;21.17;14.47;;;;;;;;;;5011023;28;20062;-63
2022/01/12 11:35:33;;;;;;;21.80;14.73;;;;;;;;;;5011131;28;20096;-63
2022/01/12 11:38:00;;;;;;;22.60;15.17;;;;;;;;;;5011169;28;20121;-63
2022/01/12 11:40:34;;;;;;;22.80;15.47;;;;;;;;;;5010549;28;20118;-63
2022/01/12 11:43:00;;;;;;;24.20;15.47;;;;;;;;;;5008299;28;20033;-63
2022/01/12 11:45:26;;;;;;;23.40;15.83;;;;;;;;;;5010364;28;20022;-64
2022/01/12 11:47:52;;;;;;;25.37;15.13;;;;;;;;;;5008430;28;20051;-63
2022/01/12 11:50:18;;;;;;;25.33;15.23;;;;;;;;;;5011055;28;20018;-62
2022/01/12 11:52:44;;;;;;;29.93;17.47;;;;;;;;;;5011723;28;20510;-62
2022/01/12 11:55:12;;;;;;;27.20;17.83;;;;;;;;;;5011857;28;20017;-62
2022/01/12 11:57:41;;;;;;;26.27;16.27;;;;;;;;;;5009871;28;20447;-62
2022/01/12 12:00:15;;;;;;;32.07;15.63;;;;;;;;;;5011051;28;20029;-63
2022/01/12 12:02:43;;;;;;;23.08;15.50;;;;;;;;;;5011176;28;20021;-64
2022/01/12 12:05:14;;;;;;;24.97;16.17;;;;;;;;;;4989782;28;20033;-64
2022/01/12 12:07:44;;;;;;;21.87;14.70;;;;;;;;;;5010182;28;20483;-63
2022/01/12 12:10:11;;;;;;;24.47;14.30;;;;;;;;;;4993041;28;20033;-63
2022/01/12 12:12:37;;;;;;;23.40;15.30;;;;;;;;;;5001095;28;20137;-63
2022/01/12 12:15:05;;;;;;;24.17;14.07;;;;;;;;;;5009520;28;20077;-63
2022/01/12 12:17:32;;;;;;;24.17;15.23;;;;;;;;;;4989585;28;20018;-63
2022/01/12 12:19:59;;;;;;;20.07;14.90;;;;;;;;;;5010517;28;20100;-61
2022/01/12 12:22:28;;;;;;;22.77;15.50;;;;;;;;;;4988644;28;20029;-64
2022/01/12 12:25:02;;;;;;;24.60;14.57;;;;;;;;;;5011235;28;20092;-63
2022/01/12 12:27:29;;;;;;;21.45;14.57;;;;;;;;;;5008979;28;20034;-63
2022/01/12 12:29:55;;;;;;;18.60;15.10;;;;;;;;;;5005448;28;20076;-62
2022/01/12 12:32:32;;;;;;;25.23;15.90;;;;;;;;;;4998414;28;20495;-63
2022/01/12 12:35:04;;;;;;;24.30;14.63;;;;;;;;;;5009387;28;20029;-62
2022/01/12 12:37:34;;;;;;;23.53;16.23;;;;;;;;;;5008253;28;20030;-62
2022/01/12 12:43:37;;;;;;;21.17;15.80;;;;;;;;;;5004744;28;20036;-64
2022/01/12 12:46:09;;;;;;;31.00;16.70;;;;;;;;;;4991541;28;20032;-64
2022/01/12 12:48:37;;;;;;;26.07;17.10;;;;;;;;;;5014293;28;20021;-64
2022/01/12 12:51:12;;;;;;;22.40;16.20;;;;;;;;;;5014240;28;20053;-62
2022/01/12 12:53:40;;;;;;;24.40;17.50;;;;;;;;;;5009012;28;20034;-63
2022/01/12 12:56:13;;;;;;;28.37;17.13;;;;;;;;;;5012603;28;20060;-63
2022/01/12 12:58:40;;;;;;;27.43;17.40;;;;;;;;;;4992454;28;20022;-63
2022/01/12 13:01:07;;;;;;;21.23;17.13;;;;;;;;;;5012776;28;20022;-63
2022/01/12 13:03:33;;;;;;;28.03;18.67;;;;;;;;;;5011640;28;20092;-63
2022/01/12 13:05:59;;;;;;;27.77;17.57;;;;;;;;;;5013675;28;20528;-63
2022/01/12 13:08:25;;;;;;;26.77;17.37;;;;;;;;;;5008079;28;20026;-64
2022/01/12 13:10:51;;;;;;;26.57;17.30;;;;;;;;;;5012898;28;20033;-63
2022/01/12 13:13:17;;;;;;;25.70;16.47;;;;;;;;;;5012576;28;20049;-64
2022/01/12 13:15:45;;;;;;;24.50;16.67;;;;;;;;;;5012375;28;20029;-63
2022/01/12 13:18:14;;;;;;;24.00;16.00;;;;;;;;;;5012641;28;20029;-63
2022/01/12 13:23:28;;;;;;;22.70;15.37;;;;;;;;;;5012320;28;20127;-63
2022/01/12 13:25:55;;;;;;;27.53;15.30;;;;;;;;;;5008533;28;20113;-63
2022/01/12 13:28:21;;;;;;;25.23;15.17;;;;;;;;;;5007567;28;20030;-62
2022/01/12 13:30:53;;;;;;;18.40;13.90;;;;;;;;;;5003875;28;20045;-63
2022/01/12 13:33:30;;;;;;;23.90;16.10;;;;;;;;;;4998796;28;20125;-63
2022/01/12 13:35:58;;;;;;;21.47;15.70;;;;;;;;;;5010768;28;20475;-62
2022/01/12 13:38:26;;;;;;;24.33;13.63;;;;;;;;;;5013082;28;20383;-62
2022/01/12 13:40:55;;;;;;;23.70;13.07;;;;;;;;;;5013648;28;20026;-62
2022/01/12 13:43:21;;;;;;;21.50;14.87;;;;;;;;;;5012872;28;20064;-62
2022/01/12 13:45:49;;;;;;;21.43;13.93;;;;;;;;;;5010536;28;20485;-62
2022/01/12 13:48:18;;;;;;;24.37;15.23;;;;;;;;;;4994912;28;20026;-64
2022/01/12 13:50:46;;;;;;;21.97;14.97;;;;;;;;;;4995129;28;20479;-64
2022/01/12 13:53:12;;;;;;;22.30;13.83;;;;;;;;;;5002119;28;20088;-64
2022/01/12 13:55:48;;;;;;;24.77;14.77;;;;;;;;;;5000369;28;20018;-63
2022/01/12 13:58:14;;;;;;;24.00;14.83;;;;;;;;;;5000008;28;20022;-63
2022/01/12 14:00:40;;;;;;;23.67;15.20;;;;;;;;;;5012917;28;20029;-63
2022/01/12 14:03:17;;;;;;;22.77;15.60;;;;;;;;;;5012818;28;20138;-62
2022/01/12 14:05:45;;;;;;;23.70;16.10;;;;;;;;;;4996275;28;20050;-62
2022/01/12 14:08:15;;;;;;;22.53;14.37;;;;;;;;;;5007840;28;20387;-63
2022/01/12 14:10:45;;;;;;;19.80;14.60;;;;;;;;;;5005629;28;20026;-63
2022/01/12 14:13:11;;;;;;;21.00;13.93;;;;;;;;;;5009464;28;20053;-63
2022/01/12 14:15:38;;;;;;;22.63;13.97;;;;;;;;;;5012604;28;20050;-63
2022/01/12 14:18:06;;;;;;;21.23;15.17;;;;;;;;;;5013802;28;20030;-63
2022/01/12 14:20:40;;;;;;;30.37;16.00;;;;;;;;;;5012700;28;20018;-63
2022/01/12 14:26:19;;;;;;;24.43;15.77;;;;;;;;;;5004945;28;20029;-63
2022/01/12 14:28:45;;;;;;;28.03;16.33;;;;;;;;;;5012899;28;20030;-63
2022/01/12 14:31:11;;;;;;;23.13;14.47;;;;;;;;;;5008594;28;20503;-63
2022/01/12 14:33:37;;;;;;;21.20;13.53;;;;;;;;;;5003476;28;20187;-63
2022/01/12 14:36:03;;;;;;;25.13;15.60;;;;;;;;;;5006989;28;20022;-63
2022/01/12 14:38:29;;;;;;;18.20;12.80;;;;;;;;;;4976266;28;20084;-63
2022/01/12 14:40:55;;;;;;;21.17;13.33;;;;;;;;;;5002883;28;20030;-63
2022/01/12 14:43:25;;;;;;;28.63;15.00;;;;;;;;;;5004817;28;20545;-63
2022/01/12 14:45:52;;;;;;;21.30;13.67;;;;;;;;;;5009963;28;20026;-63
2022/01/12 14:48:18;;;;;;;24.80;14.63;;;;;;;;;;4996340;28;20030;-63
2022/01/12 14:50:44;;;;;;;19.23;13.57;;;;;;;;;;4992034;28;20113;-63
2022/01/12 14:53:11;;;;;;;17.67;13.20;;;;;;;;;;5011389;28;20114;-63
2022/01/12 14:55:37;;;;;;;21.30;13.60;;;;;;;;;;5002995;28;20038;-63
2022/01/12 14:58:03;;;;;;;21.30;13.50;;;;;;;;;;5007493;28;20034;-63
2022/01/12 15:00:34;;;;;;;34.83;14.27;;;;;;;;;;5011937;28;20106;-62
2022/01/12 15:03:01;;;;;;;116.00;23.10;;;;;;;;;;5001759;28;20033;-62
2022/01/12 15:05:29;;;;;;;28.97;13.63;;;;;;;;;;5009989;28;20454;-63
2022/01/12 15:07:56;;;;;;;21.77;13.97;;;;;;;;;;5002773;28;20029;-63
2022/01/12 15:10:22;;;;;;;22.97;14.10;;;;;;;;;;5010706;28;20038;-63
2022/01/12 15:12:51;;;;;;;26.17;13.63;;;;;;;;;;5008810;28;20495;-63
2022/01/12 15:15:19;;;;;;;28.60;13.73;;;;;;;;;;5007785;28;20041;-63
2022/01/12 15:17:45;;;;;;;19.87;13.57;;;;;;;;;;4996076;28;20376;-63
2022/01/12 15:20:12;;;;;;;26.50;15.00;;;;;;;;;;5026175;28;20037;-63
2022/01/12 15:22:40;;;;;;;23.13;13.40;;;;;;;;;;5001797;28;20026;-63
2022/01/12 15:25:07;;;;;;;20.43;12.67;;;;;;;;;;5000702;28;20053;-63
2022/01/12 15:27:33;;;;;;;29.50;13.60;;;;;;;;;;4982001;28;20440;-63
2022/01/12 15:30:00;;;;;;;21.90;14.33;;;;;;;;;;5012066;28;20034;-63
2022/01/12 15:32:26;;;;;;;19.70;12.53;;;;;;;;;;5009271;28;20046;-63
2022/01/12 15:34:53;;;;;;;20.93;14.03;;;;;;;;;;5011454;28;20100;-63
2022/01/12 15:37:20;;;;;;;21.40;13.33;;;;;;;;;;5006444;28;20038;-62
2022/01/12 15:39:46;;;;;;;21.23;13.63;;;;;;;;;;5011240;28;20026;-63
2022/01/12 15:42:12;;;;;;;22.37;12.90;;;;;;;;;;5007939;28;20109;-62
2022/01/12 15:44:38;;;;;;;21.13;13.87;;;;;;;;;;5011344;28;20022;-63
2022/01/12 15:47:05;;;;;;;19.57;12.47;;;;;;;;;;5009671;28;20034;-63
2022/01/12 15:49:44;;;;;;;26.10;13.80;;;;;;;;;;5011190;28;20049;-63
2022/01/12 15:52:10;;;;;;;20.27;13.03;;;;;;;;;;5002149;28;20031;-63
2022/01/12 15:54:36;;;;;;;20.80;12.23;;;;;;;;;;4991771;28;20053;-63
2022/01/12 15:57:03;;;;;;;19.43;13.03;;;;;;;;;;5008754;28;20026;-63
2022/01/12 16:09:14;;;;;;;25.43;14.33;;;;;;;;;;5009218;28;20039;-63
2022/01/12 16:11:41;;;;;;;19.83;13.20;;;;;;;;;;5011378;28;20030;-63
2022/01/12 16:14:08;;;;;;;23.30;13.50;;;;;;;;;;5014259;28;20054;-62
2022/01/12 16:16:34;;;;;;;22.80;13.67;;;;;;;;;;5012055;28;20022;-63
2022/01/12 16:19:01;;;;;;;23.97;14.30;;;;;;;;;;5013386;28;20387;-63